sensor_id;sensor_type;location;lat;lon;timestamp;P1;durP1;ratioP1;P2;durP2;ratioP2
77775;SDS011;66965;43.328;6.668;2023-03-31T00:02:00;9.48;;;2.42;;
77775;SDS011;66965;43.328;6.668;2023-03-31T00:06:52;12.32;;;2.70;;
77775;SDS011;66965;43.328;6.668;2023-03-31T00:09:18;10.30;;;2.65;;
77775;SDS011;66965;43.328;6.668;2023-03-31T00:11:46;11.15;;;2.40;;
77775;SDS011;66965;43.328;6.668;2023-03-31T00:14:13;9.73;;;3.08;;
77775;SDS011;66965;43.328;6.668;2023-03-31T00:16:42;11.80;;;2.85;;
77775;SDS011;66965;43.328;6.668;2023-03-31T00:19:08;11.32;;;3.30;;
77775;SDS011;66965;43.328;6.668;2023-03-31T00:21:42;12.23;;;2.92;;
77775;SDS011;66965;43.328;6.668;2023-03-31T00:24:09;10.45;;;2.90;;
77775;SDS011;66965;43.328;6.668;2023-03-31T00:26:36;14.00;;;3.65;;
77775;SDS011;66965;43.328;6.668;2023-03-31T00:29:02;12.45;;;4.03;;
77775;SDS011;66965;43.328;6.668;2023-03-31T00:31:29;11.00;;;3.83;;
77775;SDS011;66965;43.328;6.668;2023-03-31T00:33:55;11.05;;;3.40;;
77775;SDS011;66965;43.328;6.668;2023-03-31T00:36:21;11.23;;;2.97;;
77775;SDS011;66965;43.328;6.668;2023-03-31T00:38:53;9.75;;;2.55;;
77775;SDS011;66965;43.328;6.668;2023-03-31T00:41:20;8.43;;;2.83;;
77775;SDS011;66965;43.328;6.668;2023-03-31T00:46:36;12.27;;;2.63;;
77775;SDS011;66965;43.328;6.668;2023-03-31T00:49:07;7.95;;;3.00;;
77775;SDS011;66965;43.328;6.668;2023-03-31T00:51:45;7.72;;;2.50;;
77775;SDS011;66965;43.328;6.668;2023-03-31T00:54:12;6.72;;;2.50;;
77775;SDS011;66965;43.328;6.668;2023-03-31T00:59:08;8.07;;;2.20;;
77775;SDS011;66965;43.328;6.668;2023-03-31T01:01:36;6.38;;;2.10;;
77775;SDS011;66965;43.328;6.668;2023-03-31T01:04:06;6.88;;;2.85;;
77775;SDS011;66965;43.328;6.668;2023-03-31T01:06:34;5.70;;;2.42;;
77775;SDS011;66965;43.328;6.668;2023-03-31T01:09:10;11.52;;;2.88;;
77775;SDS011;66965;43.328;6.668;2023-03-31T01:11:38;10.75;;;2.75;;
77775;SDS011;66965;43.328;6.668;2023-03-31T01:14:04;12.05;;;2.97;;
77775;SDS011;66965;43.328;6.668;2023-03-31T01:16:29;10.13;;;2.75;;
77775;SDS011;66965;43.328;6.668;2023-03-31T01:18:57;15.13;;;3.25;;
77775;SDS011;66965;43.328;6.668;2023-03-31T01:21:32;11.75;;;2.83;;
77775;SDS011;66965;43.328;6.668;2023-03-31T01:43:56;12.48;;;3.17;;
77775;SDS011;66965;43.328;6.668;2023-03-31T01:46:26;13.45;;;3.10;;
77775;SDS011;66965;43.328;6.668;2023-03-31T01:52:05;11.93;;;3.38;;
77775;SDS011;66965;43.328;6.668;2023-03-31T01:54:35;13.75;;;2.90;;
77775;SDS011;66965;43.328;6.668;2023-03-31T01:59:46;9.30;;;3.03;;
77775;SDS011;66965;43.328;6.668;2023-03-31T02:02:35;9.43;;;2.75;;
77775;SDS011;66965;43.328;6.668;2023-03-31T02:05:08;9.82;;;3.20;;
77775;SDS011;66965;43.328;6.668;2023-03-31T02:07:38;7.43;;;2.40;;
77775;SDS011;66965;43.328;6.668;2023-03-31T02:10:07;11.23;;;3.50;;
77775;SDS011;66965;43.328;6.668;2023-03-31T02:12:36;7.13;;;2.33;;
77775;SDS011;66965;43.328;6.668;2023-03-31T02:15:05;14.63;;;3.50;;
77775;SDS011;66965;43.328;6.668;2023-03-31T02:17:34;8.32;;;3.50;;
77775;SDS011;66965;43.328;6.668;2023-03-31T02:20:06;8.52;;;2.97;;
77775;SDS011;66965;43.328;6.668;2023-03-31T02:22:37;9.30;;;2.35;;
77775;SDS011;66965;43.328;6.668;2023-03-31T02:25:05;8.73;;;2.47;;
77775;SDS011;66965;43.328;6.668;2023-03-31T02:27:39;14.85;;;3.28;;
77775;SDS011;66965;43.328;6.668;2023-03-31T02:30:07;7.10;;;2.20;;
77775;SDS011;66965;43.328;6.668;2023-03-31T02:35:05;9.95;;;3.38;;
77775;SDS011;66965;43.328;6.668;2023-03-31T02:37:34;8.95;;;2.97;;
77775;SDS011;66965;43.328;6.668;2023-03-31T02:40:01;18.13;;;3.20;;
77775;SDS011;66965;43.328;6.668;2023-03-31T02:42:36;14.38;;;2.95;;
77775;SDS011;66965;43.328;6.668;2023-03-31T02:45:03;10.43;;;3.10;;
77775;SDS011;66965;43.328;6.668;2023-03-31T02:47:30;11.40;;;2.90;;
77775;SDS011;66965;43.328;6.668;2023-03-31T02:49:57;9.55;;;2.80;;
77775;SDS011;66965;43.328;6.668;2023-03-31T02:52:38;7.38;;;2.53;;
77775;SDS011;66965;43.328;6.668;2023-03-31T02:55:38;15.13;;;3.00;;
77775;SDS011;66965;43.328;6.668;2023-03-31T03:01:59;11.07;;;3.47;;
77775;SDS011;66965;43.328;6.668;2023-03-31T03:12:23;8.93;;;3.08;;
77775;SDS011;66965;43.328;6.668;2023-03-31T03:14:58;14.20;;;2.88;;
77775;SDS011;66965;43.328;6.668;2023-03-31T03:17:43;7.47;;;2.92;;
77775;SDS011;66965;43.328;6.668;2023-03-31T03:20:11;10.50;;;2.83;;
77775;SDS011;66965;43.328;6.668;2023-03-31T03:22:40;11.80;;;2.50;;
77775;SDS011;66965;43.328;6.668;2023-03-31T03:25:07;7.82;;;2.70;;
77775;SDS011;66965;43.328;6.668;2023-03-31T03:27:35;12.23;;;3.10;;
77775;SDS011;66965;43.328;6.668;2023-03-31T03:30:02;10.93;;;3.25;;
77775;SDS011;66965;43.328;6.668;2023-03-31T03:32:29;10.65;;;3.03;;
77775;SDS011;66965;43.328;6.668;2023-03-31T03:34:55;11.45;;;3.22;;
77775;SDS011;66965;43.328;6.668;2023-03-31T03:37:20;8.65;;;2.63;;
77775;SDS011;66965;43.328;6.668;2023-03-31T03:39:46;7.47;;;2.55;;
77775;SDS011;66965;43.328;6.668;2023-03-31T03:42:11;13.32;;;3.03;;
77775;SDS011;66965;43.328;6.668;2023-03-31T03:44:37;11.35;;;2.67;;
77775;SDS011;66965;43.328;6.668;2023-03-31T03:47:02;10.65;;;2.28;;
77775;SDS011;66965;43.328;6.668;2023-03-31T03:49:28;10.27;;;3.35;;
77775;SDS011;66965;43.328;6.668;2023-03-31T03:51:53;10.93;;;2.78;;
77775;SDS011;66965;43.328;6.668;2023-03-31T03:54:19;11.93;;;2.75;;
77775;SDS011;66965;43.328;6.668;2023-03-31T03:56:44;9.35;;;3.10;;
77775;SDS011;66965;43.328;6.668;2023-03-31T03:59:10;11.35;;;3.17;;
77775;SDS011;66965;43.328;6.668;2023-03-31T04:01:36;8.38;;;3.95;;
77775;SDS011;66965;43.328;6.668;2023-03-31T04:04:02;12.98;;;3.50;;
77775;SDS011;66965;43.328;6.668;2023-03-31T04:08:53;7.87;;;2.60;;
77775;SDS011;66965;43.328;6.668;2023-03-31T04:11:19;15.18;;;3.20;;
77775;SDS011;66965;43.328;6.668;2023-03-31T04:13:45;10.52;;;2.83;;
77775;SDS011;66965;43.328;6.668;2023-03-31T04:16:11;9.45;;;2.85;;
77775;SDS011;66965;43.328;6.668;2023-03-31T04:18:37;9.07;;;2.60;;
77775;SDS011;66965;43.328;6.668;2023-03-31T04:21:07;10.02;;;3.30;;
77775;SDS011;66965;43.328;6.668;2023-03-31T04:23:36;10.10;;;3.35;;
77775;SDS011;66965;43.328;6.668;2023-03-31T04:26:08;11.45;;;3.58;;
77775;SDS011;66965;43.328;6.668;2023-03-31T04:28:35;11.30;;;2.92;;
77775;SDS011;66965;43.328;6.668;2023-03-31T04:31:01;11.32;;;2.95;;
77775;SDS011;66965;43.328;6.668;2023-03-31T04:33:28;12.93;;;2.95;;
77775;SDS011;66965;43.328;6.668;2023-03-31T04:35:53;13.10;;;3.17;;
77775;SDS011;66965;43.328;6.668;2023-03-31T04:38:20;8.98;;;3.22;;
77775;SDS011;66965;43.328;6.668;2023-03-31T04:40:48;8.85;;;3.08;;
77775;SDS011;66965;43.328;6.668;2023-03-31T04:43:15;9.88;;;2.75;;
77775;SDS011;66965;43.328;6.668;2023-03-31T04:48:07;9.37;;;3.47;;
77775;SDS011;66965;43.328;6.668;2023-03-31T04:50:32;15.52;;;3.42;;
77775;SDS011;66965;43.328;6.668;2023-03-31T04:52:58;10.98;;;2.92;;
77775;SDS011;66965;43.328;6.668;2023-03-31T04:55:24;10.98;;;3.92;;
77775;SDS011;66965;43.328;6.668;2023-03-31T04:57:49;8.60;;;3.60;;
77775;SDS011;66965;43.328;6.668;2023-03-31T05:00:15;16.98;;;4.28;;
77775;SDS011;66965;43.328;6.668;2023-03-31T05:02:42;9.32;;;3.10;;
77775;SDS011;66965;43.328;6.668;2023-03-31T05:05:07;11.60;;;3.30;;
77775;SDS011;66965;43.328;6.668;2023-03-31T05:09:59;13.02;;;3.50;;
77775;SDS011;66965;43.328;6.668;2023-03-31T05:12:25;10.98;;;3.33;;
77775;SDS011;66965;43.328;6.668;2023-03-31T05:14:50;8.82;;;2.65;;
77775;SDS011;66965;43.328;6.668;2023-03-31T05:17:15;10.70;;;4.47;;
77775;SDS011;66965;43.328;6.668;2023-03-31T05:19:42;12.05;;;3.22;;
77775;SDS011;66965;43.328;6.668;2023-03-31T05:22:07;17.05;;;3.25;;
77775;SDS011;66965;43.328;6.668;2023-03-31T05:24:33;12.45;;;4.50;;
77775;SDS011;66965;43.328;6.668;2023-03-31T05:26:59;17.45;;;4.60;;
77775;SDS011;66965;43.328;6.668;2023-03-31T05:29:24;13.75;;;3.78;;
77775;SDS011;66965;43.328;6.668;2023-03-31T05:31:50;10.23;;;4.00;;
77775;SDS011;66965;43.328;6.668;2023-03-31T05:34:17;10.45;;;3.78;;
77775;SDS011;66965;43.328;6.668;2023-03-31T05:36:42;13.32;;;4.13;;
77775;SDS011;66965;43.328;6.668;2023-03-31T05:39:08;15.60;;;4.75;;
77775;SDS011;66965;43.328;6.668;2023-03-31T05:41:33;10.13;;;3.75;;
77775;SDS011;66965;43.328;6.668;2023-03-31T05:43:59;12.30;;;3.28;;
77775;SDS011;66965;43.328;6.668;2023-03-31T05:46:26;21.20;;;4.47;;
77775;SDS011;66965;43.328;6.668;2023-03-31T05:48:51;12.82;;;3.58;;
77775;SDS011;66965;43.328;6.668;2023-03-31T05:51:17;16.27;;;3.80;;
77775;SDS011;66965;43.328;6.668;2023-03-31T05:53:42;8.07;;;2.58;;
77775;SDS011;66965;43.328;6.668;2023-03-31T05:56:08;14.40;;;3.60;;
77775;SDS011;66965;43.328;6.668;2023-03-31T05:58:34;10.75;;;3.60;;
77775;SDS011;66965;43.328;6.668;2023-03-31T06:01:10;7.95;;;2.50;;
77775;SDS011;66965;43.328;6.668;2023-03-31T06:03:40;13.90;;;3.67;;
77775;SDS011;66965;43.328;6.668;2023-03-31T06:06:06;11.60;;;2.78;;
77775;SDS011;66965;43.328;6.668;2023-03-31T06:08:32;10.65;;;2.92;;
77775;SDS011;66965;43.328;6.668;2023-03-31T06:10:59;11.40;;;2.65;;
77775;SDS011;66965;43.328;6.668;2023-03-31T06:13:27;13.70;;;4.35;;
77775;SDS011;66965;43.328;6.668;2023-03-31T06:15:56;13.05;;;4.32;;
77775;SDS011;66965;43.328;6.668;2023-03-31T06:18:24;11.57;;;4.05;;
77775;SDS011;66965;43.328;6.668;2023-03-31T06:20:52;10.68;;;3.53;;
77775;SDS011;66965;43.328;6.668;2023-03-31T06:23:18;9.68;;;3.10;;
77775;SDS011;66965;43.328;6.668;2023-03-31T06:25:44;11.88;;;3.20;;
77775;SDS011;66965;43.328;6.668;2023-03-31T06:28:10;8.80;;;2.58;;
77775;SDS011;66965;43.328;6.668;2023-03-31T06:30:35;10.20;;;2.83;;
77775;SDS011;66965;43.328;6.668;2023-03-31T06:33:01;9.98;;;3.38;;
77775;SDS011;66965;43.328;6.668;2023-03-31T06:35:26;12.43;;;3.88;;
77775;SDS011;66965;43.328;6.668;2023-03-31T06:37:52;10.05;;;3.42;;
77775;SDS011;66965;43.328;6.668;2023-03-31T06:40:17;15.70;;;4.32;;
77775;SDS011;66965;43.328;6.668;2023-03-31T06:42:43;15.63;;;5.18;;
77775;SDS011;66965;43.328;6.668;2023-03-31T06:45:08;17.13;;;5.03;;
77775;SDS011;66965;43.328;6.668;2023-03-31T06:47:34;15.88;;;4.55;;
77775;SDS011;66965;43.328;6.668;2023-03-31T06:50:02;16.00;;;5.03;;
77775;SDS011;66965;43.328;6.668;2023-03-31T06:52:30;17.30;;;4.38;;
77775;SDS011;66965;43.328;6.668;2023-03-31T06:54:56;11.73;;;4.60;;
77775;SDS011;66965;43.328;6.668;2023-03-31T06:57:21;14.10;;;3.80;;
77775;SDS011;66965;43.328;6.668;2023-03-31T06:59:47;10.40;;;3.75;;
77775;SDS011;66965;43.328;6.668;2023-03-31T07:02:13;15.93;;;3.75;;
77775;SDS011;66965;43.328;6.668;2023-03-31T07:04:39;12.32;;;3.20;;
77775;SDS011;66965;43.328;6.668;2023-03-31T07:07:04;15.35;;;3.95;;
77775;SDS011;66965;43.328;6.668;2023-03-31T07:09:30;12.75;;;3.42;;
77775;SDS011;66965;43.328;6.668;2023-03-31T07:11:55;13.50;;;3.70;;
77775;SDS011;66965;43.328;6.668;2023-03-31T07:14:21;8.15;;;3.20;;
77775;SDS011;66965;43.328;6.668;2023-03-31T07:16:46;9.10;;;3.28;;
77775;SDS011;66965;43.328;6.668;2023-03-31T07:19:12;12.93;;;3.47;;
77775;SDS011;66965;43.328;6.668;2023-03-31T07:21:39;13.55;;;3.13;;
77775;SDS011;66965;43.328;6.668;2023-03-31T07:24:05;12.23;;;3.38;;
77775;SDS011;66965;43.328;6.668;2023-03-31T07:26:30;9.07;;;2.58;;
77775;SDS011;66965;43.328;6.668;2023-03-31T07:28:56;10.57;;;2.50;;
77775;SDS011;66965;43.328;6.668;2023-03-31T07:31:21;15.45;;;3.75;;
77775;SDS011;66965;43.328;6.668;2023-03-31T07:33:47;11.25;;;3.33;;
77775;SDS011;66965;43.328;6.668;2023-03-31T07:36:13;18.02;;;3.97;;
77775;SDS011;66965;43.328;6.668;2023-03-31T07:38:39;10.98;;;3.22;;
77775;SDS011;66965;43.328;6.668;2023-03-31T07:41:13;12.38;;;3.83;;
77775;SDS011;66965;43.328;6.668;2023-03-31T07:43:40;11.25;;;3.10;;
77775;SDS011;66965;43.328;6.668;2023-03-31T07:46:06;8.55;;;3.50;;
77775;SDS011;66965;43.328;6.668;2023-03-31T07:48:38;11.15;;;3.25;;
77775;SDS011;66965;43.328;6.668;2023-03-31T07:51:04;8.25;;;2.70;;
77775;SDS011;66965;43.328;6.668;2023-03-31T07:53:29;17.77;;;6.47;;
77775;SDS011;66965;43.328;6.668;2023-03-31T07:55:55;17.08;;;4.60;;
77775;SDS011;66965;43.328;6.668;2023-03-31T07:58:21;12.70;;;6.63;;
77775;SDS011;66965;43.328;6.668;2023-03-31T08:00:46;18.55;;;12.65;;
77775;SDS011;66965;43.328;6.668;2023-03-31T08:03:11;14.05;;;8.55;;
77775;SDS011;66965;43.328;6.668;2023-03-31T08:05:37;17.77;;;12.40;;
77775;SDS011;66965;43.328;6.668;2023-03-31T08:08:02;15.40;;;5.85;;
77775;SDS011;66965;43.328;6.668;2023-03-31T08:10:28;13.48;;;4.30;;
77775;SDS011;66965;43.328;6.668;2023-03-31T08:12:53;10.88;;;3.25;;
77775;SDS011;66965;43.328;6.668;2023-03-31T08:15:19;20.77;;;7.00;;
77775;SDS011;66965;43.328;6.668;2023-03-31T08:17:45;10.85;;;5.78;;
77775;SDS011;66965;43.328;6.668;2023-03-31T08:20:11;10.32;;;5.45;;
77775;SDS011;66965;43.328;6.668;2023-03-31T08:22:37;9.88;;;2.90;;
77775;SDS011;66965;43.328;6.668;2023-03-31T08:25:05;6.32;;;2.45;;
77775;SDS011;66965;43.328;6.668;2023-03-31T08:27:35;9.95;;;3.17;;
77775;SDS011;66965;43.328;6.668;2023-03-31T08:30:03;7.90;;;3.10;;
77775;SDS011;66965;43.328;6.668;2023-03-31T08:32:31;10.95;;;3.80;;
77775;SDS011;66965;43.328;6.668;2023-03-31T08:34:57;12.68;;;3.92;;
77775;SDS011;66965;43.328;6.668;2023-03-31T08:37:23;11.82;;;3.50;;
77775;SDS011;66965;43.328;6.668;2023-03-31T08:39:48;9.95;;;2.92;;
77775;SDS011;66965;43.328;6.668;2023-03-31T08:42:15;12.25;;;3.63;;
77775;SDS011;66965;43.328;6.668;2023-03-31T08:44:50;11.88;;;3.58;;
77775;SDS011;66965;43.328;6.668;2023-03-31T08:47:21;6.68;;;2.78;;
77775;SDS011;66965;43.328;6.668;2023-03-31T08:49:52;7.05;;;2.33;;
77775;SDS011;66965;43.328;6.668;2023-03-31T08:52:23;9.15;;;2.63;;
77775;SDS011;66965;43.328;6.668;2023-03-31T08:54:57;11.40;;;2.67;;
77775;SDS011;66965;43.328;6.668;2023-03-31T08:58:02;5.03;;;2.10;;
77775;SDS011;66965;43.328;6.668;2023-03-31T09:00:33;8.23;;;2.58;;
77775;SDS011;66965;43.328;6.668;2023-03-31T09:03:08;8.23;;;2.35;;
77775;SDS011;66965;43.328;6.668;2023-03-31T09:06:05;9.65;;;2.22;;
77775;SDS011;66965;43.328;6.668;2023-03-31T09:08:40;10.85;;;3.47;;
77775;SDS011;66965;43.328;6.668;2023-03-31T09:11:27;8.00;;;2.15;;
77775;SDS011;66965;43.328;6.668;2023-03-31T09:16:44;11.45;;;3.55;;
77775;SDS011;66965;43.328;6.668;2023-03-31T09:19:20;7.43;;;2.65;;
77775;SDS011;66965;43.328;6.668;2023-03-31T09:21:55;8.65;;;3.53;;
77775;SDS011;66965;43.328;6.668;2023-03-31T09:24:29;10.93;;;3.47;;
77775;SDS011;66965;43.328;6.668;2023-03-31T09:27:00;9.85;;;2.58;;
77775;SDS011;66965;43.328;6.668;2023-03-31T09:29:44;10.10;;;2.40;;
77775;SDS011;66965;43.328;6.668;2023-03-31T09:32:31;7.18;;;2.58;;
77775;SDS011;66965;43.328;6.668;2023-03-31T09:35:01;9.57;;;2.70;;
77775;SDS011;66965;43.328;6.668;2023-03-31T09:37:39;6.03;;;2.50;;
77775;SDS011;66965;43.328;6.668;2023-03-31T09:40:05;9.40;;;2.53;;
77775;SDS011;66965;43.328;6.668;2023-03-31T09:42:35;9.18;;;3.10;;
77775;SDS011;66965;43.328;6.668;2023-03-31T09:45:02;7.75;;;2.67;;
77775;SDS011;66965;43.328;6.668;2023-03-31T09:52:34;11.73;;;3.90;;
77775;SDS011;66965;43.328;6.668;2023-03-31T09:55:05;11.10;;;3.83;;
77775;SDS011;66965;43.328;6.668;2023-03-31T09:57:42;10.10;;;3.05;;
77775;SDS011;66965;43.328;6.668;2023-03-31T10:02:41;10.07;;;3.38;;
77775;SDS011;66965;43.328;6.668;2023-03-31T10:05:17;10.30;;;2.75;;
77775;SDS011;66965;43.328;6.668;2023-03-31T10:07:49;9.93;;;2.38;;
77775;SDS011;66965;43.328;6.668;2023-03-31T10:10:24;11.60;;;2.80;;
77775;SDS011;66965;43.328;6.668;2023-03-31T10:12:55;10.43;;;3.10;;
77775;SDS011;66965;43.328;6.668;2023-03-31T10:15:27;8.18;;;2.58;;
77775;SDS011;66965;43.328;6.668;2023-03-31T10:17:53;11.38;;;3.33;;
77775;SDS011;66965;43.328;6.668;2023-03-31T10:20:32;8.43;;;2.60;;
77775;SDS011;66965;43.328;6.668;2023-03-31T10:23:23;10.95;;;2.63;;
77775;SDS011;66965;43.328;6.668;2023-03-31T10:25:53;7.03;;;2.13;;
77775;SDS011;66965;43.328;6.668;2023-03-31T10:28:20;9.20;;;2.67;;
77775;SDS011;66965;43.328;6.668;2023-03-31T10:30:53;8.90;;;2.28;;
77775;SDS011;66965;43.328;6.668;2023-03-31T10:33:22;8.40;;;2.47;;
77775;SDS011;66965;43.328;6.668;2023-03-31T10:36:06;10.75;;;2.83;;
77775;SDS011;66965;43.328;6.668;2023-03-31T10:38:38;9.88;;;3.38;;
77775;SDS011;66965;43.328;6.668;2023-03-31T10:41:09;9.93;;;3.50;;
77775;SDS011;66965;43.328;6.668;2023-03-31T10:46:11;11.13;;;2.25;;
77775;SDS011;66965;43.328;6.668;2023-03-31T10:48:38;8.95;;;2.35;;
77775;SDS011;66965;43.328;6.668;2023-03-31T10:53:46;10.45;;;3.15;;
77775;SDS011;66965;43.328;6.668;2023-03-31T10:58:43;8.32;;;2.58;;
77775;SDS011;66965;43.328;6.668;2023-03-31T11:04:01;9.95;;;3.05;;
77775;SDS011;66965;43.328;6.668;2023-03-31T11:06:54;15.18;;;2.60;;
77775;SDS011;66965;43.328;6.668;2023-03-31T11:12:07;7.90;;;2.53;;
77775;SDS011;66965;43.328;6.668;2023-03-31T11:14:49;10.90;;;2.97;;
77775;SDS011;66965;43.328;6.668;2023-03-31T11:20:14;9.32;;;2.17;;
77775;SDS011;66965;43.328;6.668;2023-03-31T11:33:55;12.33;;;5.07;;
77775;SDS011;66965;43.328;6.668;2023-03-31T11:41:44;20.30;;;9.25;;
77775;SDS011;66965;43.328;6.668;2023-03-31T11:44:14;16.77;;;8.20;;
77775;SDS011;66965;43.328;6.668;2023-03-31T11:46:45;15.50;;;8.40;;
77775;SDS011;66965;43.328;6.668;2023-03-31T11:49:24;13.57;;;5.22;;
77775;SDS011;66965;43.328;6.668;2023-03-31T11:51:56;16.17;;;9.38;;
77775;SDS011;66965;43.328;6.668;2023-03-31T11:54:33;9.00;;;3.85;;
77775;SDS011;66965;43.328;6.668;2023-03-31T11:57:06;13.13;;;6.28;;
77775;SDS011;66965;43.328;6.668;2023-03-31T12:02:21;18.35;;;9.57;;
77775;SDS011;66965;43.328;6.668;2023-03-31T12:04:52;14.93;;;3.70;;
77775;SDS011;66965;43.328;6.668;2023-03-31T12:07:39;11.43;;;4.50;;
77775;SDS011;66965;43.328;6.668;2023-03-31T12:15:24;12.00;;;7.90;;
77775;SDS011;66965;43.328;6.668;2023-03-31T12:18:23;11.85;;;4.97;;
77775;SDS011;66965;43.328;6.668;2023-03-31T12:20:51;13.55;;;6.07;;
77775;SDS011;66965;43.328;6.668;2023-03-31T12:23:24;11.85;;;6.53;;
77775;SDS011;66965;43.328;6.668;2023-03-31T12:28:23;13.68;;;6.78;;
77775;SDS011;66965;43.328;6.668;2023-03-31T12:30:51;14.60;;;6.80;;
77775;SDS011;66965;43.328;6.668;2023-03-31T12:33:36;22.58;;;7.13;;
77775;SDS011;66965;43.328;6.668;2023-03-31T12:39:20;10.27;;;6.68;;
77775;SDS011;66965;43.328;6.668;2023-03-31T12:44:50;11.80;;;5.93;;
77775;SDS011;66965;43.328;6.668;2023-03-31T12:47:31;11.20;;;6.38;;
77775;SDS011;66965;43.328;6.668;2023-03-31T12:52:48;12.52;;;6.07;;
77775;SDS011;66965;43.328;6.668;2023-03-31T13:03:45;11.27;;;6.60;;
77775;SDS011;66965;43.328;6.668;2023-03-31T13:06:44;11.32;;;5.72;;
77775;SDS011;66965;43.328;6.668;2023-03-31T13:08:57;10.82;;;5.90;;
77775;SDS011;66965;43.328;6.668;2023-03-31T13:16:24;11.82;;;5.95;;
77775;SDS011;66965;43.328;6.668;2023-03-31T13:18:51;13.50;;;5.53;;
77775;SDS011;66965;43.328;6.668;2023-03-31T13:21:18;10.23;;;5.72;;
77775;SDS011;66965;43.328;6.668;2023-03-31T13:34:27;11.80;;;5.38;;
77775;SDS011;66965;43.328;6.668;2023-03-31T13:59:42;9.55;;;6.18;;
77775;SDS011;66965;43.328;6.668;2023-03-31T14:07:28;10.07;;;5.77;;
77775;SDS011;66965;43.328;6.668;2023-03-31T14:09:58;12.43;;;6.15;;
77775;SDS011;66965;43.328;6.668;2023-03-31T14:12:31;10.85;;;5.90;;
77775;SDS011;66965;43.328;6.668;2023-03-31T14:14:59;12.25;;;6.50;;
77775;SDS011;66965;43.328;6.668;2023-03-31T14:17:26;15.45;;;6.38;;
77775;SDS011;66965;43.328;6.668;2023-03-31T14:27:59;11.38;;;6.63;;
77775;SDS011;66965;43.328;6.668;2023-03-31T14:33:21;15.38;;;6.55;;
77775;SDS011;66965;43.328;6.668;2023-03-31T14:38:43;10.32;;;6.50;;
77775;SDS011;66965;43.328;6.668;2023-03-31T14:41:14;14.57;;;7.28;;
77775;SDS011;66965;43.328;6.668;2023-03-31T14:43:45;10.43;;;6.00;;
77775;SDS011;66965;43.328;6.668;2023-03-31T14:46:17;14.48;;;7.40;;
77775;SDS011;66965;43.328;6.668;2023-03-31T14:48:45;11.75;;;6.05;;
77775;SDS011;66965;43.328;6.668;2023-03-31T14:51:16;9.45;;;6.20;;
77775;SDS011;66965;43.328;6.668;2023-03-31T14:53:43;10.30;;;6.05;;
77775;SDS011;66965;43.328;6.668;2023-03-31T14:56:13;13.93;;;6.38;;
77775;SDS011;66965;43.328;6.668;2023-03-31T14:58:48;10.15;;;6.18;;
77775;SDS011;66965;43.328;6.668;2023-03-31T15:03:47;10.73;;;5.88;;
77775;SDS011;66965;43.328;6.668;2023-03-31T15:06:15;10.05;;;5.35;;
77775;SDS011;66965;43.328;6.668;2023-03-31T15:08:41;10.73;;;5.85;;
77775;SDS011;66965;43.328;6.668;2023-03-31T15:11:07;11.82;;;5.72;;
77775;SDS011;66965;43.328;6.668;2023-03-31T15:13:45;9.20;;;5.53;;
77775;SDS011;66965;43.328;6.668;2023-03-31T15:16:34;12.82;;;5.70;;
77775;SDS011;66965;43.328;6.668;2023-03-31T15:19:03;11.73;;;5.82;;
77775;SDS011;66965;43.328;6.668;2023-03-31T15:21:35;12.80;;;6.30;;
77775;SDS011;66965;43.328;6.668;2023-03-31T15:24:02;9.57;;;6.30;;
77775;SDS011;66965;43.328;6.668;2023-03-31T15:26:36;10.60;;;5.68;;
77775;SDS011;66965;43.328;6.668;2023-03-31T15:29:28;11.63;;;5.95;;
77775;SDS011;66965;43.328;6.668;2023-03-31T15:31:58;14.80;;;6.05;;
77775;SDS011;66965;43.328;6.668;2023-03-31T15:34:30;10.98;;;5.85;;
77775;SDS011;66965;43.328;6.668;2023-03-31T15:36:57;10.75;;;5.45;;
77775;SDS011;66965;43.328;6.668;2023-03-31T15:39:25;12.48;;;5.72;;
77775;SDS011;66965;43.328;6.668;2023-03-31T15:41:54;11.10;;;6.05;;
77775;SDS011;66965;43.328;6.668;2023-03-31T15:47:16;12.60;;;5.95;;
77775;SDS011;66965;43.328;6.668;2023-03-31T15:52:35;11.80;;;4.82;;
77775;SDS011;66965;43.328;6.668;2023-03-31T15:57:49;11.20;;;5.40;;
77775;SDS011;66965;43.328;6.668;2023-03-31T16:02:56;14.35;;;6.25;;
77775;SDS011;66965;43.328;6.668;2023-03-31T16:10:58;11.25;;;5.32;;
77775;SDS011;66965;43.328;6.668;2023-03-31T16:13:28;10.95;;;5.78;;
77775;SDS011;66965;43.328;6.668;2023-03-31T16:15:56;12.15;;;6.32;;
77775;SDS011;66965;43.328;6.668;2023-03-31T16:18:30;14.02;;;6.07;;
77775;SDS011;66965;43.328;6.668;2023-03-31T16:21:01;10.52;;;5.32;;
77775;SDS011;66965;43.328;6.668;2023-03-31T16:23:30;12.38;;;6.45;;
77775;SDS011;66965;43.328;6.668;2023-03-31T16:25:58;10.10;;;4.85;;
77775;SDS011;66965;43.328;6.668;2023-03-31T16:28:25;11.80;;;5.50;;
77775;SDS011;66965;43.328;6.668;2023-03-31T16:30:54;12.77;;;5.82;;
77775;SDS011;66965;43.328;6.668;2023-03-31T16:33:20;10.30;;;5.55;;
77775;SDS011;66965;43.328;6.668;2023-03-31T16:35:50;10.93;;;5.43;;
77775;SDS011;66965;43.328;6.668;2023-03-31T16:38:24;10.45;;;5.35;;
77775;SDS011;66965;43.328;6.668;2023-03-31T16:40:51;13.95;;;5.72;;
77775;SDS011;66965;43.328;6.668;2023-03-31T16:45:48;10.20;;;5.43;;
77775;SDS011;66965;43.328;6.668;2023-03-31T16:48:15;10.63;;;5.25;;
77775;SDS011;66965;43.328;6.668;2023-03-31T16:50:46;11.27;;;5.38;;
77775;SDS011;66965;43.328;6.668;2023-03-31T16:53:13;9.27;;;6.00;;
77775;SDS011;66965;43.328;6.668;2023-03-31T16:55:41;10.73;;;5.50;;
77775;SDS011;66965;43.328;6.668;2023-03-31T16:58:07;11.95;;;6.57;;
77775;SDS011;66965;43.328;6.668;2023-03-31T17:00:33;12.68;;;5.95;;
77775;SDS011;66965;43.328;6.668;2023-03-31T17:03:00;15.48;;;6.00;;
77775;SDS011;66965;43.328;6.668;2023-03-31T17:05:26;10.63;;;5.80;;
77775;SDS011;66965;43.328;6.668;2023-03-31T17:07:53;15.77;;;5.47;;
77775;SDS011;66965;43.328;6.668;2023-03-31T17:10:19;11.98;;;6.32;;
77775;SDS011;66965;43.328;6.668;2023-03-31T17:12:44;28.52;;;7.75;;
77775;SDS011;66965;43.328;6.668;2023-03-31T17:15:10;14.85;;;5.95;;
77775;SDS011;66965;43.328;6.668;2023-03-31T17:17:35;11.48;;;6.18;;
77775;SDS011;66965;43.328;6.668;2023-03-31T17:20:02;13.02;;;5.57;;
77775;SDS011;66965;43.328;6.668;2023-03-31T17:22:28;13.95;;;6.20;;
77775;SDS011;66965;43.328;6.668;2023-03-31T17:24:54;12.80;;;6.05;;
77775;SDS011;66965;43.328;6.668;2023-03-31T17:27:23;12.73;;;5.80;;
77775;SDS011;66965;43.328;6.668;2023-03-31T17:29:49;13.48;;;6.45;;
77775;SDS011;66965;43.328;6.668;2023-03-31T17:32:15;13.60;;;6.65;;
77775;SDS011;66965;43.328;6.668;2023-03-31T17:34:41;11.95;;;6.15;;
77775;SDS011;66965;43.328;6.668;2023-03-31T17:37:07;12.15;;;6.57;;
77775;SDS011;66965;43.328;6.668;2023-03-31T17:39:32;12.10;;;5.72;;
77775;SDS011;66965;43.328;6.668;2023-03-31T17:41:58;12.50;;;5.72;;
77775;SDS011;66965;43.328;6.668;2023-03-31T17:44:23;12.82;;;5.82;;
77775;SDS011;66965;43.328;6.668;2023-03-31T17:46:49;11.00;;;5.82;;
77775;SDS011;66965;43.328;6.668;2023-03-31T17:49:14;11.40;;;6.05;;
77775;SDS011;66965;43.328;6.668;2023-03-31T17:51:41;12.57;;;5.93;;
77775;SDS011;66965;43.328;6.668;2023-03-31T17:54:08;15.55;;;6.40;;
77775;SDS011;66965;43.328;6.668;2023-03-31T17:56:35;11.98;;;5.65;;
77775;SDS011;66965;43.328;6.668;2023-03-31T18:01:28;12.77;;;6.20;;
77775;SDS011;66965;43.328;6.668;2023-03-31T18:03:54;21.10;;;6.97;;
77775;SDS011;66965;43.328;6.668;2023-03-31T18:06:20;11.63;;;7.22;;
77775;SDS011;66965;43.328;6.668;2023-03-31T18:08:46;11.85;;;7.10;;
77775;SDS011;66965;43.328;6.668;2023-03-31T18:11:12;13.63;;;7.72;;
77775;SDS011;66965;43.328;6.668;2023-03-31T18:13:38;14.35;;;7.45;;
77775;SDS011;66965;43.328;6.668;2023-03-31T18:16:03;12.75;;;6.30;;
77775;SDS011;66965;43.328;6.668;2023-03-31T18:18:32;11.52;;;6.10;;